Terminal Aerodrome Forecast
Issued by NWS

Home | Current Version | Previous Version | Text Only | Print | Product List | Glossary On
Versions: 1 2 3 4 5 6 7 8 9 10 11 12 13 14 15 16 17 18 19 20 21 22 23 24 25 26 27 28 29 30 31 32 33 34 35 36 37 38 39 40 41 42 43 44 45 46 47
000
FTUS44 KMOB 030541
TAFBFM
TAF
KBFM 030541Z 0306/0406 07005KT 1/4SM FG VV006
     FM030800 10002KT 1/4SM FG OVC001
     FM031500 11004KT 3/4SM BR OVC003
     FM031800 16007KT 6SM HZ OVC007
     FM032100 16011KT 6SM BR OVC007=

USA.gov is the U.S. government's official web portal to all federal, state and local government web resources and services.